Terminal Aerodrome Forecast
Issued by NWS

Home | Current Version | Previous Version | Text Only | Print | Product List | Glossary On
Versions: 1 2 3 4 5 6 7 8 9 10 11 12 13 14
304
FTUS46 KEKA 261720
TAFUKI
TAF
KUKI 261720Z 2618/2718 00000KT P6SM SCT003 BKN025
     FM262000 28011G20KT P6SM VCSH SCT025 BKN035
     FM270200 31010G20KT 6SM -SHRA OVC020
     FM270700 VRB03KT P6SM VCSH SCT015 BKN060=

USA.gov is the U.S. government's official web portal to all federal, state and local government web resources and services.